createdAt,value
2018-01-15T00:02:26.123Z,22.10
2018-01-15T00:04:53.571Z,19.97
2018-01-15T00:07:21.751Z,22.40
2018-01-15T00:09:49.203Z,22.03
2018-01-15T00:12:16.670Z,21.70
2018-01-15T00:14:44.127Z,21.23
2018-01-15T00:17:11.583Z,20.00
2018-01-15T00:19:39.062Z,21.33
2018-01-15T00:22:07.276Z,21.20
2018-01-15T00:24:34.727Z,22.10
2018-01-15T00:27:02.204Z,21.27
2018-01-15T00:29:29.684Z,21.13
2018-01-15T00:31:57.140Z,19.13
2018-01-15T00:34:24.592Z,20.53
2018-01-15T00:36:52.052Z,22.27
2018-01-15T00:39:19.515Z,20.97
2018-01-15T00:41:47.760Z,21.97
2018-01-15T00:44:15.228Z,20.20
2018-01-15T00:46:42.701Z,20.93
2018-01-15T00:49:10.931Z,20.77
2018-01-15T00:51:38.399Z,19.77
2018-01-15T00:54:05.858Z,20.57
2018-01-15T00:56:33.327Z,20.20
2018-01-15T00:59:00.784Z,20.33
2018-01-15T01:01:28.239Z,20.73
2018-01-15T01:03:55.708Z,20.13
2018-01-15T01:06:23.163Z,20.70
2018-01-15T01:08:50.627Z,21.23
2018-01-15T01:11:18.846Z,20.80
2018-01-15T01:13:46.306Z,22.67
2018-01-15T01:16:13.767Z,21.33
2018-01-15T01:18:41.255Z,21.60
2018-01-15T01:21:08.717Z,23.37
2018-01-15T01:23:36.176Z,25.17
2018-01-15T01:26:03.648Z,24.60
2018-01-15T01:28:31.895Z,22.13
2018-01-15T01:30:59.361Z,21.83
2018-01-15T01:33:26.819Z,21.30
2018-01-15T01:35:55.043Z,22.80
2018-01-15T01:38:22.503Z,22.50
2018-01-15T01:40:49.959Z,22.50
2018-01-15T01:43:17.434Z,19.97
2018-01-15T01:45:44.899Z,20.42
2018-01-15T01:48:12.363Z,20.23
2018-01-15T01:50:39.818Z,20.00
2018-01-15T01:53:07.289Z,20.03
2018-01-15T01:55:34.740Z,20.23
2018-01-15T01:58:02.216Z,21.13
2018-01-15T02:00:30.442Z,19.30
2018-01-15T02:02:57.906Z,21.93
2018-01-15T02:05:25.376Z,21.10
2018-01-15T02:07:52.841Z,19.53
2018-01-15T02:10:20.295Z,19.70
2018-01-15T02:12:47.763Z,22.47
2018-01-15T02:15:15.984Z,20.90
2018-01-15T02:17:43.447Z,20.70
2018-01-15T02:20:10.911Z,21.37
2018-01-15T02:22:38.372Z,19.40
2018-01-15T02:25:05.839Z,20.20
2018-01-15T02:27:33.299Z,20.37
2018-01-15T02:30:00.767Z,19.73
2018-01-15T02:32:29.509Z,19.27
2018-01-15T02:34:56.967Z,19.67
2018-01-15T02:37:24.455Z,18.67
2018-01-15T02:39:51.924Z,19.67
2018-01-15T02:42:20.153Z,18.70
2018-01-15T02:44:47.613Z,19.83
2018-01-15T02:47:15.108Z,19.20
2018-01-15T02:49:42.564Z,18.60
2018-01-15T02:52:10.786Z,19.87
2018-01-15T02:54:38.272Z,20.47
2018-01-15T02:57:05.743Z,19.10
2018-01-15T02:59:33.215Z,18.13
2018-01-15T03:02:01.435Z,19.93
2018-01-15T03:04:28.895Z,18.83
2018-01-15T03:06:56.359Z,20.00
2018-01-15T03:09:23.827Z,19.07
2018-01-15T03:11:51.295Z,19.30
2018-01-15T03:14:18.758Z,19.00
2018-01-15T03:16:46.215Z,18.60
2018-01-15T03:19:13.674Z,19.50
2018-01-15T03:21:41.131Z,19.13
2018-01-15T03:24:08.614Z,20.53
2018-01-15T03:26:36.072Z,20.30
2018-01-15T03:29:03.543Z,19.12
2018-01-15T03:31:31.016Z,18.60
2018-01-15T03:33:58.487Z,19.55
2018-01-15T03:36:25.957Z,19.03
2018-01-15T03:38:53.416Z,19.12
2018-01-15T03:41:20.878Z,19.03
2018-01-15T03:43:48.338Z,19.47
2018-01-15T03:46:15.804Z,18.60
2018-01-15T03:48:44.031Z,19.07
2018-01-15T03:51:11.498Z,18.97
2018-01-15T03:53:38.979Z,18.00
2018-01-15T03:56:06.447Z,18.77
2018-01-15T03:58:34.670Z,17.47
2018-01-15T04:01:02.133Z,19.30
2018-01-15T04:03:29.603Z,19.70
2018-01-15T04:05:57.071Z,18.27
2018-01-15T04:08:24.543Z,17.50
2018-01-15T04:10:52.025Z,17.60
2018-01-15T04:13:19.493Z,17.93
2018-01-15T04:15:46.967Z,19.73
2018-01-15T04:18:14.446Z,19.60
2018-01-15T04:20:41.925Z,18.23
2018-01-15T04:23:09.387Z,18.47
2018-01-15T04:25:37.627Z,18.07
2018-01-15T04:28:05.083Z,19.00
2018-01-15T04:30:32.557Z,20.40
2018-01-15T04:33:00.008Z,19.50
2018-01-15T04:35:27.488Z,17.00
2018-01-15T04:37:55.714Z,17.90
2018-01-15T04:40:23.199Z,17.90
2018-01-15T04:42:50.663Z,20.30
2018-01-15T04:45:18.119Z,20.27
2018-01-15T04:47:45.583Z,20.60
2018-01-15T04:50:13.803Z,19.97
2018-01-15T04:52:41.272Z,17.97
2018-01-15T04:55:08.727Z,22.00
2018-01-15T04:57:36.191Z,19.70
2018-01-15T05:00:03.655Z,21.33
2018-01-15T05:02:31.124Z,21.00
2018-01-15T05:04:58.575Z,19.77
2018-01-15T05:07:26.039Z,21.23
2018-01-15T05:09:54.003Z,18.87
2018-01-15T05:12:21.467Z,19.67
2018-01-15T05:14:48.927Z,18.87
2018-01-15T05:17:16.385Z,20.00
2018-01-15T05:19:44.612Z,21.13
2018-01-15T05:22:12.107Z,19.50
2018-01-15T05:24:39.592Z,19.33
2018-01-15T05:27:07.059Z,20.30
2018-01-15T05:29:34.514Z,19.90
2018-01-15T05:32:01.967Z,21.40
2018-01-15T05:34:29.422Z,19.53
2018-01-15T05:36:56.890Z,20.10
2018-01-15T05:39:24.338Z,21.00
2018-01-15T05:41:51.810Z,19.37
2018-01-15T05:44:19.267Z,21.10
2018-01-15T05:46:46.731Z,18.93
2018-01-15T05:49:14.188Z,20.43
2018-01-15T05:51:41.639Z,21.60
2018-01-15T05:54:09.103Z,22.00
2018-01-15T05:56:36.564Z,20.37
2018-01-15T05:59:04.032Z,21.40
2018-01-15T06:01:31.484Z,20.67
2018-01-15T06:03:58.956Z,20.90
2018-01-15T06:06:26.415Z,19.40
2018-01-15T06:08:53.867Z,19.83
2018-01-15T06:11:21.322Z,20.90
2018-01-15T06:13:48.779Z,21.90
2018-01-15T06:16:16.232Z,21.23
2018-01-15T06:18:43.696Z,20.20
2018-01-15T06:21:11.148Z,20.10
2018-01-15T06:23:38.607Z,20.80
2018-01-15T06:26:06.064Z,21.70
2018-01-15T06:28:33.528Z,20.70
2018-01-15T06:31:00.979Z,20.77
2018-01-15T06:33:28.439Z,20.60
2018-01-15T06:35:55.894Z,20.27
2018-01-15T06:38:23.351Z,20.80
2018-01-15T06:40:50.799Z,21.93
2018-01-15T06:43:18.267Z,21.70
2018-01-15T06:45:46.662Z,21.33
2018-01-15T06:48:14.883Z,21.23
2018-01-15T06:50:42.348Z,19.00
2018-01-15T06:53:09.803Z,20.97
2018-01-15T06:55:37.255Z,23.00
2018-01-15T06:58:04.715Z,20.40
2018-01-15T07:00:32.172Z,22.47
2018-01-15T07:02:59.631Z,21.73
2018-01-15T07:05:27.108Z,19.70
2018-01-15T07:07:54.760Z,20.33
2018-01-15T07:10:22.216Z,19.70
2018-01-15T07:12:49.666Z,21.37
2018-01-15T07:15:17.128Z,20.30
2018-01-15T07:17:44.607Z,21.10
2018-01-15T07:20:12.847Z,21.83
2018-01-15T07:22:40.304Z,21.27
2018-01-15T07:25:07.771Z,22.37
2018-01-15T07:27:35.228Z,23.43
2018-01-15T07:30:02.691Z,27.57
2018-01-15T07:32:30.143Z,21.40
2018-01-15T07:34:57.608Z,19.77
2018-01-15T07:37:25.069Z,22.53
2018-01-15T07:39:52.513Z,21.27
2018-01-15T07:42:19.967Z,22.90
2018-01-15T07:44:47.429Z,22.70
2018-01-15T07:47:14.884Z,21.63
2018-01-15T07:49:42.339Z,21.60
2018-01-15T07:52:09.792Z,21.80
2018-01-15T07:54:37.247Z,22.13
2018-01-15T07:57:04.703Z,23.40
2018-01-15T07:59:32.170Z,21.37
2018-01-15T08:01:59.627Z,21.33
2018-01-15T08:04:27.087Z,20.50
2018-01-15T08:06:54.539Z,21.20
2018-01-15T08:09:21.991Z,18.60
2018-01-15T08:11:49.451Z,21.37
2018-01-15T08:14:16.908Z,21.53
2018-01-15T08:16:44.364Z,24.30
2018-01-15T08:19:11.812Z,21.73
2018-01-15T08:21:39.271Z,22.70
2018-01-15T08:24:06.723Z,22.90
2018-01-15T08:26:34.187Z,21.23
2018-01-15T08:29:01.642Z,21.90
2018-01-15T08:31:29.095Z,22.37
2018-01-15T08:33:56.548Z,18.77
2018-01-15T08:36:24.012Z,20.97
2018-01-15T08:38:51.462Z,19.67
2018-01-15T08:41:18.922Z,20.43
2018-01-15T08:43:46.374Z,20.00
2018-01-15T08:46:13.841Z,22.50
2018-01-15T08:48:41.297Z,23.93
2018-01-15T08:51:08.764Z,22.90
2018-01-15T08:53:36.977Z,21.27
2018-01-15T08:56:04.434Z,22.50
2018-01-15T08:58:31.891Z,25.67
2018-01-15T09:00:59.361Z,18.90
2018-01-15T09:03:26.803Z,19.10
2018-01-15T09:05:54.259Z,18.47
2018-01-15T09:08:21.711Z,18.07
2018-01-15T09:10:49.172Z,19.27
2018-01-15T09:13:16.634Z,16.80
2018-01-15T09:15:44.091Z,17.73
2018-01-15T09:18:11.544Z,17.17
2018-01-15T09:20:39.011Z,17.47
2018-01-15T09:23:06.465Z,19.73
2018-01-15T09:25:33.914Z,16.43
2018-01-15T09:28:01.375Z,18.50
2018-01-15T09:30:28.894Z,17.57
2018-01-15T09:32:57.127Z,17.20
2018-01-15T09:35:24.589Z,17.60
2018-01-15T09:37:52.071Z,16.83
2018-01-15T09:40:19.503Z,17.20
2018-01-15T09:42:46.962Z,17.90
2018-01-15T09:45:14.406Z,17.67
2018-01-15T09:47:41.863Z,18.10
2018-01-15T09:50:09.320Z,16.80
2018-01-15T09:52:36.783Z,17.23
2018-01-15T09:55:04.250Z,18.17
2018-01-15T09:57:31.711Z,18.60
2018-01-15T09:59:59.181Z,18.37
2018-01-15T10:02:26.647Z,18.70
2018-01-15T10:04:54.100Z,17.87
2018-01-15T10:07:21.550Z,17.50
2018-01-15T10:09:49.012Z,19.70
2018-01-15T10:12:16.463Z,17.83
2018-01-15T10:14:43.924Z,17.37
2018-01-15T10:17:11.374Z,20.47
2018-01-15T10:19:38.835Z,18.20
2018-01-15T10:22:06.278Z,18.10
2018-01-15T10:24:33.738Z,19.20
2018-01-15T10:27:01.221Z,21.70
2018-01-15T10:29:28.667Z,43.73
2018-01-15T10:31:56.130Z,32.00
2018-01-15T10:34:23.620Z,21.63
2018-01-15T10:36:53.027Z,19.20
2018-01-15T10:39:20.520Z,19.10
2018-01-15T10:41:47.996Z,19.17
2018-01-15T10:44:15.437Z,20.53
2018-01-15T10:46:42.891Z,21.37
2018-01-15T10:49:11.169Z,19.30
2018-01-15T10:51:38.619Z,21.40
2018-01-15T10:54:06.067Z,19.10
2018-01-15T10:56:33.569Z,19.83
2018-01-15T10:59:01.011Z,18.37
2018-01-15T11:01:28.474Z,18.83
2018-01-15T11:03:55.931Z,17.70
2018-01-15T11:06:23.400Z,18.77
2018-01-15T11:08:50.846Z,19.30
2018-01-15T11:11:18.304Z,19.90
2018-01-15T11:13:45.771Z,19.53
2018-01-15T11:16:13.225Z,19.17
2018-01-15T11:18:40.683Z,19.50
2018-01-15T11:21:08.127Z,18.00
2018-01-15T11:23:35.587Z,18.73
2018-01-15T11:26:03.055Z,18.40
2018-01-15T11:28:30.522Z,19.90
2018-01-15T11:30:58.044Z,17.90
2018-01-15T11:33:25.503Z,19.20
2018-01-15T11:35:53.098Z,20.50
2018-01-15T11:38:21.315Z,18.97
2018-01-15T11:40:48.776Z,18.87
2018-01-15T11:43:16.252Z,19.50
2018-01-15T11:45:43.734Z,17.70
2018-01-15T11:48:11.195Z,18.77
2018-01-15T11:50:38.655Z,18.20
2018-01-15T11:53:06.879Z,21.13
2018-01-15T11:55:34.331Z,20.10
2018-01-15T11:58:01.795Z,21.00
2018-01-15T12:00:29.818Z,20.37
2018-01-15T12:02:58.038Z,19.57
2018-01-15T12:05:25.486Z,19.90
2018-01-15T12:07:52.948Z,20.83
2018-01-15T12:10:20.403Z,20.23
2018-01-15T12:12:47.853Z,19.03
2018-01-15T12:15:15.312Z,19.70
2018-01-15T12:17:42.754Z,19.60
2018-01-15T12:20:10.211Z,18.87
2018-01-15T12:22:37.678Z,19.67
2018-01-15T12:25:05.116Z,19.10
2018-01-15T12:27:32.623Z,19.87
2018-01-15T12:30:00.126Z,20.07
2018-01-15T12:32:27.534Z,19.00
2018-01-15T12:34:54.992Z,19.60
2018-01-15T12:37:22.452Z,19.60
2018-01-15T12:39:49.921Z,21.40
2018-01-15T12:42:17.367Z,18.90
2018-01-15T12:44:44.836Z,19.60
2018-01-15T12:47:12.287Z,18.97
2018-01-15T12:49:39.743Z,18.93
2018-01-15T12:52:07.187Z,18.60
2018-01-15T12:54:34.660Z,20.40
2018-01-15T12:57:02.099Z,18.13
2018-01-15T12:59:29.568Z,19.57
2018-01-15T13:01:57.023Z,19.67
2018-01-15T13:04:24.647Z,20.43
2018-01-15T13:06:56.067Z,17.40
2018-01-15T13:09:24.279Z,20.27
2018-01-15T13:11:51.753Z,18.90
2018-01-15T13:14:19.206Z,21.37
2018-01-15T13:16:46.658Z,20.03
2018-01-15T13:19:14.103Z,23.40
2018-01-15T13:21:42.211Z,23.00
2018-01-15T13:24:09.663Z,21.60
2018-01-15T13:26:37.121Z,21.60
2018-01-15T13:29:04.567Z,20.77
2018-01-15T13:31:32.019Z,19.27
2018-01-15T13:33:59.471Z,19.70
2018-01-15T13:36:26.929Z,20.27
2018-01-15T13:38:54.380Z,20.00
2018-01-15T13:41:21.839Z,19.07
2018-01-15T13:43:49.306Z,19.60
2018-01-15T13:46:16.806Z,19.77
2018-01-15T13:48:44.246Z,20.20
2018-01-15T13:51:12.864Z,20.13
2018-01-15T13:53:40.303Z,19.63
2018-01-15T13:56:07.754Z,20.20
2018-01-15T13:58:35.967Z,21.23
2018-01-15T14:01:04.415Z,22.57
2018-01-15T14:03:32.366Z,19.40
2018-01-15T14:06:03.523Z,21.83
2018-01-15T14:08:31.107Z,21.30
2018-01-15T14:10:58.564Z,23.70
2018-01-15T14:13:26.028Z,24.70
2018-01-15T14:15:53.477Z,21.60
2018-01-15T14:18:21.292Z,21.57
2018-01-15T14:20:48.763Z,19.47
2018-01-15T14:23:16.975Z,21.50
2018-01-15T14:25:44.428Z,19.17
2018-01-15T14:28:11.880Z,22.77
2018-01-15T14:30:39.338Z,20.70
2018-01-15T14:33:06.793Z,22.73
2018-01-15T14:35:34.242Z,20.80
2018-01-15T14:38:01.695Z,20.17
2018-01-15T14:40:29.136Z,18.67
2018-01-15T14:42:56.614Z,20.97
2018-01-15T14:45:24.079Z,20.47
2018-01-15T14:47:51.535Z,19.27
2018-01-15T14:50:18.982Z,21.37
2018-01-15T14:52:46.443Z,21.80
2018-01-15T14:55:13.899Z,22.30
2018-01-15T14:57:41.351Z,21.80
2018-01-15T15:00:08.812Z,21.47
2018-01-15T15:02:36.267Z,19.30
2018-01-15T15:05:03.723Z,18.47
2018-01-15T15:07:31.179Z,19.07
2018-01-15T15:09:58.631Z,21.07
2018-01-15T15:12:26.105Z,17.20
2018-01-15T15:14:53.543Z,18.67
2018-01-15T15:17:21.402Z,16.83
2018-01-15T15:19:48.843Z,18.70
2018-01-15T15:22:16.295Z,19.40
2018-01-15T15:24:44.523Z,20.40
2018-01-15T15:27:11.975Z,18.40
2018-01-15T15:29:39.431Z,16.70
2018-01-15T15:32:06.891Z,19.57
2018-01-15T15:34:34.348Z,24.10
2018-01-15T15:37:01.808Z,20.30
2018-01-15T15:39:29.266Z,17.97
2018-01-15T15:41:56.717Z,19.37
2018-01-15T15:44:24.182Z,20.97
2018-01-15T15:46:51.631Z,19.87
2018-01-15T15:49:19.082Z,22.43
2018-01-15T15:51:46.525Z,18.70
2018-01-15T15:54:13.974Z,34.37
2018-01-15T15:56:41.431Z,42.90
2018-01-15T15:59:08.886Z,50.47
2018-01-15T16:01:36.343Z,30.03
2018-01-15T16:04:03.814Z,24.20
2018-01-15T16:06:31.281Z,28.10
2018-01-15T16:08:58.758Z,25.57
2018-01-15T16:11:26.267Z,32.80
2018-01-15T16:13:53.742Z,21.63
2018-01-15T16:16:21.211Z,23.70
2018-01-15T16:18:48.731Z,22.77
2018-01-15T16:21:16.186Z,23.50
2018-01-15T16:23:43.714Z,17.97
2018-01-15T16:26:12.052Z,17.93
2018-01-15T16:28:39.658Z,15.17
2018-01-15T16:31:07.106Z,17.83
2018-01-15T16:33:34.564Z,17.70
2018-01-15T16:36:02.780Z,15.50
2018-01-15T16:38:31.002Z,16.10
2018-01-15T16:40:58.449Z,16.67
2018-01-15T16:43:25.903Z,18.97
2018-01-15T16:45:53.370Z,17.73
2018-01-15T16:48:20.810Z,19.50
2018-01-15T16:50:48.277Z,18.23
2018-01-15T16:53:15.727Z,19.20
2018-01-15T16:55:43.183Z,20.93
2018-01-15T16:58:10.653Z,28.07
2018-01-15T17:00:38.116Z,17.50
2018-01-15T17:03:05.542Z,15.70
2018-01-15T17:05:32.990Z,15.50
2018-01-15T17:08:00.446Z,17.07
2018-01-15T17:10:28.498Z,15.17
2018-01-15T17:12:55.946Z,19.50
2018-01-15T17:15:23.406Z,19.40
2018-01-15T17:17:50.847Z,18.87
2018-01-15T17:20:18.298Z,16.47
2018-01-15T17:22:45.746Z,15.00
2018-01-15T17:25:13.962Z,15.80
2018-01-15T17:27:41.422Z,18.73
2018-01-15T17:30:08.889Z,16.40
2018-01-15T17:32:36.334Z,15.57
2018-01-15T17:35:03.789Z,16.07
2018-01-15T17:37:31.242Z,18.87
2018-01-15T17:39:58.695Z,18.83
2018-01-15T17:42:26.177Z,25.50
2018-01-15T17:44:53.602Z,42.50
2018-01-15T17:47:21.058Z,31.00
2018-01-15T17:49:48.518Z,18.50
2018-01-15T17:52:15.970Z,21.70
2018-01-15T17:54:43.426Z,21.10
2018-01-15T17:57:10.878Z,19.67
2018-01-15T17:59:38.346Z,24.83
2018-01-15T18:02:05.795Z,24.47
2018-01-15T18:04:33.250Z,36.27
2018-01-15T18:07:00.707Z,22.77
2018-01-15T18:09:28.915Z,23.60
2018-01-15T18:11:56.371Z,20.10
2018-01-15T18:14:23.827Z,22.23
2018-01-15T18:16:51.290Z,19.30
2018-01-15T18:19:25.714Z,16.23
2018-01-15T18:21:53.168Z,17.10
2018-01-15T18:24:20.618Z,17.80
2018-01-15T18:26:48.076Z,15.37
2018-01-15T18:29:15.526Z,15.10
2018-01-15T18:31:42.987Z,15.60
2018-01-15T18:34:10.443Z,15.67
2018-01-15T18:36:37.907Z,15.43
2018-01-15T18:39:05.354Z,14.53
2018-01-15T18:41:32.810Z,16.67
2018-01-15T18:44:00.253Z,16.03
2018-01-15T18:46:27.703Z,16.43
2018-01-15T18:48:55.174Z,16.80
2018-01-15T18:51:22.636Z,16.07
2018-01-15T18:53:50.091Z,15.40
2018-01-15T18:56:17.556Z,15.27
2018-01-15T18:58:45.000Z,16.23
2018-01-15T19:01:12.450Z,15.63
2018-01-15T19:03:39.898Z,15.63
2018-01-15T19:06:07.358Z,16.23
2018-01-15T19:08:34.816Z,15.50
2018-01-15T19:11:02.467Z,15.73
2018-01-15T19:13:29.915Z,10.87
2018-01-15T19:15:57.359Z,16.30
2018-01-15T19:18:24.824Z,15.53
2018-01-15T19:20:52.285Z,15.20
2018-01-15T19:23:19.745Z,16.93
2018-01-15T19:25:47.190Z,16.17
2018-01-15T19:28:14.660Z,17.20
2018-01-15T19:30:42.150Z,18.00
2018-01-15T19:33:09.610Z,17.77
2018-01-15T19:35:42.870Z,14.50
2018-01-15T19:41:10.162Z,16.40
2018-01-15T19:43:43.202Z,15.20
2018-01-15T19:46:24.681Z,17.10
2018-01-15T19:49:09.487Z,15.13
2018-01-15T19:51:48.990Z,13.20
2018-01-15T19:54:22.058Z,14.20
2018-01-15T19:56:55.323Z,14.90
2018-01-15T19:59:32.348Z,14.77
2018-01-15T20:02:05.525Z,13.50
2018-01-15T20:04:38.593Z,11.47
2018-01-15T20:07:14.468Z,13.00
2018-01-15T20:09:47.713Z,13.27
2018-01-15T20:12:15.206Z,12.20
2018-01-15T20:14:42.658Z,13.47
2018-01-15T20:17:10.880Z,13.30
2018-01-15T20:19:38.331Z,11.53
2018-01-15T20:22:05.779Z,12.83
2018-01-15T20:24:33.279Z,14.00
2018-01-15T20:27:01.511Z,13.53
2018-01-15T20:29:29.132Z,14.10
2018-01-15T20:31:57.391Z,11.40
2018-01-15T20:34:48.733Z,13.93
2018-01-15T20:37:16.219Z,13.03
2018-01-15T20:39:43.722Z,13.67
2018-01-15T20:42:11.216Z,14.00
2018-01-15T20:44:38.723Z,11.70
2018-01-15T20:47:06.218Z,11.17
2018-01-15T20:49:45.877Z,12.30
2018-01-15T20:52:13.339Z,12.20
2018-01-15T20:54:40.891Z,12.83
2018-01-15T20:57:08.416Z,10.83
2018-01-15T20:59:36.031Z,10.53
2018-01-15T21:02:03.499Z,10.80
2018-01-15T21:04:31.014Z,9.20
2018-01-15T21:06:58.464Z,10.50
2018-01-15T21:09:25.972Z,11.10
2018-01-15T21:14:53.706Z,7.07
2018-01-15T21:17:22.027Z,10.17
2018-01-15T21:19:49.556Z,7.90
2018-01-15T21:22:17.110Z,8.63
2018-01-15T21:24:44.670Z,6.73
2018-01-15T21:27:12.201Z,6.63
2018-01-15T21:29:40.460Z,4.90
2018-01-15T21:32:07.933Z,6.67
2018-01-15T21:34:35.366Z,3.33
2018-01-15T21:37:02.866Z,4.40
2018-01-15T21:39:30.356Z,3.90
2018-01-15T21:41:57.851Z,2.90
2018-01-15T21:44:25.332Z,3.20
2018-01-15T21:46:53.583Z,2.13
2018-01-15T21:49:21.035Z,1.43
2018-01-15T21:51:48.491Z,2.30
2018-01-15T21:54:15.930Z,2.13
2018-01-15T21:56:44.990Z,1.40
2018-01-15T21:59:12.476Z,1.20
2018-01-15T22:01:39.986Z,2.27
2018-01-15T22:04:08.269Z,1.73
2018-01-15T22:06:36.638Z,1.80
2018-01-15T22:09:04.121Z,0.87
2018-01-15T22:11:31.560Z,1.73
2018-01-15T22:13:59.031Z,1.70
2018-01-15T22:16:26.484Z,1.40
2018-01-15T22:18:53.965Z,1.53
2018-01-15T22:21:21.403Z,1.50
2018-01-15T22:23:48.856Z,1.70
2018-01-15T22:26:16.298Z,1.20
2018-01-15T22:28:43.805Z,1.27
2018-01-15T22:31:11.239Z,1.67
2018-01-15T22:33:38.718Z,1.13
2018-01-15T22:36:06.165Z,1.40
2018-01-15T22:38:33.619Z,1.10
2018-01-15T22:41:01.062Z,1.80
2018-01-15T22:43:28.507Z,1.60
2018-01-15T22:45:55.963Z,1.40
2018-01-15T22:48:23.403Z,1.37
2018-01-15T22:50:50.854Z,1.30
2018-01-15T22:53:18.290Z,1.30
2018-01-15T22:55:46.506Z,1.47
2018-01-15T22:58:13.947Z,1.30
2018-01-15T23:00:41.396Z,1.50
2018-01-15T23:03:08.834Z,1.07
2018-01-15T23:05:37.052Z,1.27
2018-01-15T23:08:04.490Z,1.00
2018-01-15T23:10:31.936Z,1.53
2018-01-15T23:13:00.135Z,1.10
2018-01-15T23:15:27.594Z,1.07
2018-01-15T23:17:55.051Z,1.33
2018-01-15T23:20:22.613Z,0.90
2018-01-15T23:22:50.052Z,1.20
2018-01-15T23:25:17.495Z,1.10
2018-01-15T23:27:45.708Z,1.30
2018-01-15T23:30:13.150Z,1.20
2018-01-15T23:32:40.602Z,1.30
2018-01-15T23:35:08.046Z,1.13
2018-01-15T23:37:35.485Z,1.30
2018-01-15T23:40:03.689Z,1.70
2018-01-15T23:42:31.145Z,1.30
2018-01-15T23:44:58.602Z,1.20
2018-01-15T23:47:26.058Z,0.90
2018-01-15T23:49:53.507Z,0.70
2018-01-15T23:52:20.951Z,0.97
2018-01-15T23:54:48.386Z,1.10
2018-01-15T23:57:16.602Z,1.17
2018-01-15T23:59:44.036Z,0.80
